sensor_id;sensor_type;location;lat;lon;timestamp;pressure;altitude;pressure_sealevel;temperature;humidity
64243;BME280;50573;51.512;5.386;2023-03-04T00:02:56;102396.91;;;5.90;79.31
64243;BME280;50573;51.512;5.386;2023-03-04T00:13:00;102399.19;;;5.88;79.56
64243;BME280;50573;51.512;5.386;2023-03-04T00:23:03;102388.66;;;5.83;80.08
64243;BME280;50573;51.512;5.386;2023-03-04T00:33:08;102385.88;;;5.79;80.98
64243;BME280;50573;51.512;5.386;2023-03-04T00:43:11;102379.28;;;5.77;81.39
64243;BME280;50573;51.512;5.386;2023-03-04T00:53:15;102377.84;;;5.83;81.18
64243;BME280;50573;51.512;5.386;2023-03-04T01:03:18;102379.53;;;5.91;81.30
64243;BME280;50573;51.512;5.386;2023-03-04T01:13:24;102386.50;;;5.92;81.39
64243;BME280;50573;51.512;5.386;2023-03-04T01:23:27;102378.69;;;5.87;81.28
64243;BME280;50573;51.512;5.386;2023-03-04T01:33:31;102383.81;;;5.92;81.37
64243;BME280;50573;51.512;5.386;2023-03-04T01:43:35;102376.81;;;5.91;81.46
64243;BME280;50573;51.512;5.386;2023-03-04T01:53:40;102358.31;;;5.93;81.43
64243;BME280;50573;51.512;5.386;2023-03-04T02:03:44;102344.38;;;5.91;81.54
64243;BME280;50573;51.512;5.386;2023-03-04T02:13:48;102329.75;;;5.95;81.17
64243;BME280;50573;51.512;5.386;2023-03-04T02:23:59;102332.00;;;5.90;81.67
64243;BME280;50573;51.512;5.386;2023-03-04T02:34:10;102328.88;;;5.88;81.11
64243;BME280;50573;51.512;5.386;2023-03-04T02:44:15;102319.31;;;5.94;81.33
64243;BME280;50573;51.512;5.386;2023-03-04T02:54:22;102313.06;;;5.90;81.65
64243;BME280;50573;51.512;5.386;2023-03-04T03:04:26;102306.81;;;5.86;82.37
64243;BME280;50573;51.512;5.386;2023-03-04T03:14:32;102300.97;;;5.84;82.16
64243;BME280;50573;51.512;5.386;2023-03-04T03:24:36;102299.13;;;5.88;82.66
64243;BME280;50573;51.512;5.386;2023-03-04T03:34:41;102287.56;;;5.91;83.02
64243;BME280;50573;51.512;5.386;2023-03-04T03:44:44;102292.88;;;5.84;83.03
64243;BME280;50573;51.512;5.386;2023-03-04T03:54:48;102276.22;;;5.82;83.56
64243;BME280;50573;51.512;5.386;2023-03-04T04:04:51;102286.25;;;5.81;83.33
64243;BME280;50573;51.512;5.386;2023-03-04T04:14:56;102268.19;;;5.62;82.00
64243;BME280;50573;51.512;5.386;2023-03-04T04:24:59;102294.59;;;5.72;81.46
64243;BME280;50573;51.512;5.386;2023-03-04T04:35:04;102285.47;;;5.81;81.06
64243;BME280;50573;51.512;5.386;2023-03-04T04:45:08;102297.94;;;5.85;81.23
64243;BME280;50573;51.512;5.386;2023-03-04T04:55:13;102301.22;;;5.75;81.78
64243;BME280;50573;51.512;5.386;2023-03-04T05:05:16;102308.97;;;5.77;81.34
64243;BME280;50573;51.512;5.386;2023-03-04T05:15:20;102297.44;;;5.80;80.97
64243;BME280;50573;51.512;5.386;2023-03-04T05:25:23;102297.00;;;5.78;80.95
64243;BME280;50573;51.512;5.386;2023-03-04T05:35:27;102296.94;;;5.74;81.74
64243;BME280;50573;51.512;5.386;2023-03-04T05:45:30;102306.22;;;5.73;81.70
64243;BME280;50573;51.512;5.386;2023-03-04T05:55:35;102307.72;;;5.71;81.62
64243;BME280;50573;51.512;5.386;2023-03-04T06:05:38;102313.22;;;5.78;81.47
64243;BME280;50573;51.512;5.386;2023-03-04T06:15:42;102311.56;;;5.69;83.47
64243;BME280;50573;51.512;5.386;2023-03-04T06:25:45;102321.94;;;5.67;84.55
64243;BME280;50573;51.512;5.386;2023-03-04T06:35:52;102318.09;;;5.68;86.16
64243;BME280;50573;51.512;5.386;2023-03-04T06:45:55;102332.34;;;5.65;87.82
64243;BME280;50573;51.512;5.386;2023-03-04T06:56:00;102333.06;;;5.62;88.27
64243;BME280;50573;51.512;5.386;2023-03-04T07:06:03;102342.44;;;5.68;88.03
64243;BME280;50573;51.512;5.386;2023-03-04T07:16:10;102329.44;;;5.78;87.97
64243;BME280;50573;51.512;5.386;2023-03-04T07:26:13;102346.28;;;5.90;88.05
64243;BME280;50573;51.512;5.386;2023-03-04T07:36:18;102362.09;;;6.11;87.47
64243;BME280;50573;51.512;5.386;2023-03-04T07:46:21;102365.00;;;6.25;87.55
64243;BME280;50573;51.512;5.386;2023-03-04T07:56:27;102379.41;;;6.32;87.41
64243;BME280;50573;51.512;5.386;2023-03-04T08:06:31;102371.28;;;6.32;87.90
64243;BME280;50573;51.512;5.386;2023-03-04T08:16:36;102375.31;;;6.42;88.21
64243;BME280;50573;51.512;5.386;2023-03-04T08:26:41;102379.56;;;6.43;89.24
64243;BME280;50573;51.512;5.386;2023-03-04T08:36:46;102375.19;;;6.61;89.63
64243;BME280;50573;51.512;5.386;2023-03-04T08:46:56;102387.38;;;7.07;87.22
64243;BME280;50573;51.512;5.386;2023-03-04T08:57:06;102382.59;;;7.30;86.90
64243;BME280;50573;51.512;5.386;2023-03-04T09:07:14;102387.59;;;7.61;83.61
64243;BME280;50573;51.512;5.386;2023-03-04T09:17:25;102381.22;;;7.87;81.18
64243;BME280;50573;51.512;5.386;2023-03-04T09:27:31;102374.06;;;8.15;80.50
64243;BME280;50573;51.512;5.386;2023-03-04T09:37:41;102365.41;;;8.50;79.63
64243;BME280;50573;51.512;5.386;2023-03-04T09:47:50;102358.47;;;8.56;79.00
64243;BME280;50573;51.512;5.386;2023-03-04T09:58:00;102365.00;;;8.48;78.16
64243;BME280;50573;51.512;5.386;2023-03-04T10:08:25;102363.59;;;8.72;77.06
64243;BME280;50573;51.512;5.386;2023-03-04T10:18:36;102363.28;;;8.87;76.72
64243;BME280;50573;51.512;5.386;2023-03-04T10:28:41;102360.22;;;8.96;76.25
64243;BME280;50573;51.512;5.386;2023-03-04T10:38:46;102348.22;;;9.18;74.26
64243;BME280;50573;51.512;5.386;2023-03-04T10:48:49;102336.53;;;8.93;76.50
64243;BME280;50573;51.512;5.386;2023-03-04T10:59:22;102340.28;;;8.71;77.79
64243;BME280;50573;51.512;5.386;2023-03-04T11:09:32;102335.22;;;8.66;77.50
64243;BME280;50573;51.512;5.386;2023-03-04T11:19:38;102322.41;;;8.59;79.83
64243;BME280;50573;51.512;5.386;2023-03-04T11:29:46;102315.44;;;8.62;82.11
64243;BME280;50573;51.512;5.386;2023-03-04T11:39:54;102303.47;;;8.77;82.85
64243;BME280;50573;51.512;5.386;2023-03-04T11:50:17;102300.75;;;8.77;83.68
64243;BME280;50573;51.512;5.386;2023-03-04T12:00:44;102284.44;;;8.77;84.78
64243;BME280;50573;51.512;5.386;2023-03-04T12:10:57;102270.56;;;9.17;83.87
64243;BME280;50573;51.512;5.386;2023-03-04T12:21:19;102256.59;;;9.36;81.85
64243;BME280;50573;51.512;5.386;2023-03-04T12:31:36;102232.47;;;9.87;79.42
64243;BME280;50573;51.512;5.386;2023-03-04T12:41:45;102219.16;;;10.17;77.27
64243;BME280;50573;51.512;5.386;2023-03-04T12:52:02;102216.09;;;9.94;76.90
64243;BME280;50573;51.512;5.386;2023-03-04T13:02:38;102211.13;;;9.64;78.54
64243;BME280;50573;51.512;5.386;2023-03-04T13:12:51;102193.25;;;9.39;81.53
64243;BME280;50573;51.512;5.386;2023-03-04T13:22:55;102189.78;;;9.10;84.20
64243;BME280;50573;51.512;5.386;2023-03-04T13:33:45;102178.88;;;8.72;90.38
64243;BME280;50573;51.512;5.386;2023-03-04T13:43:49;102168.34;;;8.53;92.43
64243;BME280;50573;51.512;5.386;2023-03-04T13:54:05;102171.44;;;8.48;91.76
64243;BME280;50573;51.512;5.386;2023-03-04T14:04:10;102167.81;;;8.19;94.84
64243;BME280;50573;51.512;5.386;2023-03-04T14:14:18;102161.59;;;8.11;96.60
64243;BME280;50573;51.512;5.386;2023-03-04T14:24:22;102146.25;;;8.61;92.41
64243;BME280;50573;51.512;5.386;2023-03-04T14:34:29;102143.94;;;8.88;89.37
64243;BME280;50573;51.512;5.386;2023-03-04T14:44:35;102143.13;;;8.52;87.13
64243;BME280;50573;51.512;5.386;2023-03-04T14:54:41;102125.28;;;8.72;84.56
64243;BME280;50573;51.512;5.386;2023-03-04T15:04:44;102112.91;;;8.99;82.28
64243;BME280;50573;51.512;5.386;2023-03-04T15:14:50;102113.66;;;9.07;81.72
64243;BME280;50573;51.512;5.386;2023-03-04T15:24:54;102093.84;;;9.10;81.25
64243;BME280;50573;51.512;5.386;2023-03-04T15:34:59;102096.16;;;9.08;79.30
64243;BME280;50573;51.512;5.386;2023-03-04T15:45:11;102099.31;;;8.71;78.68
64243;BME280;50573;51.512;5.386;2023-03-04T15:55:23;102100.03;;;8.36;78.08
64243;BME280;50573;51.512;5.386;2023-03-04T16:05:27;102095.34;;;8.30;77.83
64243;BME280;50573;51.512;5.386;2023-03-04T16:15:32;102098.81;;;8.23;77.04
64243;BME280;50573;51.512;5.386;2023-03-04T16:25:35;102099.16;;;8.11;75.47
64243;BME280;50573;51.512;5.386;2023-03-04T16:35:40;102087.06;;;7.84;78.10
64243;BME280;50573;51.512;5.386;2023-03-04T16:45:43;102085.09;;;7.78;78.08
64243;BME280;50573;51.512;5.386;2023-03-04T16:55:48;102086.22;;;7.66;77.74
64243;BME280;50573;51.512;5.386;2023-03-04T17:05:51;102086.94;;;7.56;78.84
64243;BME280;50573;51.512;5.386;2023-03-04T17:15:59;102097.72;;;7.49;79.00
64243;BME280;50573;51.512;5.386;2023-03-04T17:26:02;102103.09;;;7.35;80.06
64243;BME280;50573;51.512;5.386;2023-03-04T17:36:09;102117.69;;;7.20;81.70
64243;BME280;50573;51.512;5.386;2023-03-04T17:46:14;102112.97;;;7.10;83.34
64243;BME280;50573;51.512;5.386;2023-03-04T17:56:19;102119.47;;;7.02;82.67
64243;BME280;50573;51.512;5.386;2023-03-04T18:06:22;102124.88;;;6.95;82.13
64243;BME280;50573;51.512;5.386;2023-03-04T18:16:27;102129.84;;;6.89;81.53
64243;BME280;50573;51.512;5.386;2023-03-04T18:26:31;102118.63;;;6.91;81.97
64243;BME280;50573;51.512;5.386;2023-03-04T18:36:35;102119.75;;;6.86;82.18
64243;BME280;50573;51.512;5.386;2023-03-04T18:46:40;102119.69;;;6.79;82.31
64243;BME280;50573;51.512;5.386;2023-03-04T18:56:47;102117.75;;;6.80;79.25
64243;BME280;50573;51.512;5.386;2023-03-04T19:06:53;102122.00;;;6.81;77.79
64243;BME280;50573;51.512;5.386;2023-03-04T19:16:57;102120.13;;;6.85;77.76
64243;BME280;50573;51.512;5.386;2023-03-04T19:27:01;102110.47;;;6.84;79.34
64243;BME280;50573;51.512;5.386;2023-03-04T19:37:07;102100.72;;;6.76;81.62
64243;BME280;50573;51.512;5.386;2023-03-04T19:47:10;102101.84;;;6.75;82.91
64243;BME280;50573;51.512;5.386;2023-03-04T19:57:15;102100.66;;;6.69;84.21
64243;BME280;50573;51.512;5.386;2023-03-04T20:07:18;102098.22;;;6.57;85.93
64243;BME280;50573;51.512;5.386;2023-03-04T20:17:22;102098.53;;;6.52;86.70
64243;BME280;50573;51.512;5.386;2023-03-04T20:27:25;102093.53;;;6.54;86.68
64243;BME280;50573;51.512;5.386;2023-03-04T20:37:30;102102.00;;;6.49;87.24
64243;BME280;50573;51.512;5.386;2023-03-04T20:47:33;102109.72;;;6.47;86.87
64243;BME280;50573;51.512;5.386;2023-03-04T20:57:40;102111.94;;;6.38;84.73
64243;BME280;50573;51.512;5.386;2023-03-04T21:07:43;102108.44;;;6.37;83.66
64243;BME280;50573;51.512;5.386;2023-03-04T21:17:48;102108.06;;;6.35;83.70
64243;BME280;50573;51.512;5.386;2023-03-04T21:27:51;102084.44;;;6.29;83.86
64243;BME280;50573;51.512;5.386;2023-03-04T21:37:55;102081.63;;;6.22;84.40
64243;BME280;50573;51.512;5.386;2023-03-04T21:47:58;102071.19;;;6.20;84.35
64243;BME280;50573;51.512;5.386;2023-03-04T21:58:02;102072.63;;;6.11;83.98
64243;BME280;50573;51.512;5.386;2023-03-04T22:08:05;102062.16;;;6.06;83.94
64243;BME280;50573;51.512;5.386;2023-03-04T22:18:11;102066.34;;;6.00;84.11
64243;BME280;50573;51.512;5.386;2023-03-04T22:28:15;102070.13;;;5.95;84.38
64243;BME280;50573;51.512;5.386;2023-03-04T22:38:20;102067.41;;;5.92;84.18
64243;BME280;50573;51.512;5.386;2023-03-04T22:48:23;102054.16;;;5.83;84.02
64243;BME280;50573;51.512;5.386;2023-03-04T22:58:28;102053.66;;;5.78;83.80
64243;BME280;50573;51.512;5.386;2023-03-04T23:08:31;102045.84;;;5.69;83.83
64243;BME280;50573;51.512;5.386;2023-03-04T23:18:36;102032.31;;;5.65;83.71
64243;BME280;50573;51.512;5.386;2023-03-04T23:28:39;102038.41;;;5.59;84.41
64243;BME280;50573;51.512;5.386;2023-03-04T23:38:45;102035.56;;;5.48;85.91
64243;BME280;50573;51.512;5.386;2023-03-04T23:48:49;102015.41;;;5.42;85.69
64243;BME280;50573;51.512;5.386;2023-03-04T23:58:54;102011.50;;;5.40;85.76
